Time;durP1;ratioP1;P1;durP2;ratioP2;P2;SDS_P1;SDS_P2;PMS_P1;PMS_P2;Temp;Humidity;BMP_temperature;BMP_pressure;BME280_temperature;BME280_humidity;BME280_pressure;Samples;Min_cycle;Max_cycle;Signal;HPM_P1;HPM_P2
2022/03/16 07:01:23;;;;;;;44.45;19.55;;;;;;;;;;5373674;24;20057;-83
2022/03/16 07:03:50;;;;;;;50.72;21.50;;;;;;;;;;4841627;29;20138;-83
2022/03/16 07:06:17;;;;;;;51.42;21.13;;;;;;;;;;4840632;29;20480;-83
2022/03/16 07:08:43;;;;;;;55.35;22.60;;;;;;;;;;4840134;29;20060;-84
2022/03/16 07:11:10;;;;;;;50.83;21.95;;;;;;;;;;4839866;29;20050;-83
2022/03/16 07:13:38;;;;;;;54.15;22.33;;;;;;;;;;4841688;29;20046;-85
2022/03/16 07:16:05;;;;;;;52.90;24.20;;;;;;;;;;4841296;29;20142;-81
2022/03/16 07:18:40;;;;;;;59.08;24.05;;;;;;;;;;4841265;29;20511;-84
2022/03/16 07:21:07;;;;;;;56.22;26.33;;;;;;;;;;4839743;29;21078;-85
2022/03/16 07:23:33;;;;;;;64.13;27.73;;;;;;;;;;4851882;29;20053;-82
2022/03/16 07:26:01;;;;;;;57.95;24.58;;;;;;;;;;4833938;29;20038;-82
2022/03/16 07:28:27;;;;;;;63.92;24.92;;;;;;;;;;4841214;29;20058;-81
2022/03/16 07:30:55;;;;;;;52.67;24.27;;;;;;;;;;4839912;29;20065;-81
2022/03/16 07:33:22;;;;;;;58.13;25.35;;;;;;;;;;4836721;29;20094;-81
2022/03/16 07:35:48;;;;;;;57.85;26.23;;;;;;;;;;4838548;29;20523;-81
2022/03/16 07:38:15;;;;;;;54.75;26.20;;;;;;;;;;4837094;29;20054;-80
2022/03/16 07:40:42;;;;;;;60.40;26.90;;;;;;;;;;4837971;29;20073;-83
2022/03/16 07:43:10;;;;;;;55.45;27.27;;;;;;;;;;4835829;29;20050;-82
2022/03/16 07:45:37;;;;;;;57.97;28.02;;;;;;;;;;4836417;29;20053;-82
2022/03/16 07:48:04;;;;;;;63.53;30.00;;;;;;;;;;4836224;29;20201;-82
2022/03/16 07:50:31;;;;;;;73.40;31.25;;;;;;;;;;4837415;29;20134;-82
2022/03/16 07:52:58;;;;;;;63.70;30.80;;;;;;;;;;4840089;29;20110;-82
2022/03/16 07:55:26;;;;;;;67.18;31.17;;;;;;;;;;4838781;29;20117;-82
2022/03/16 07:57:54;;;;;;;58.60;30.17;;;;;;;;;;4839816;29;20050;-82
2022/03/16 08:00:21;;;;;;;66.50;29.45;;;;;;;;;;4839140;29;20050;-82
2022/03/16 08:02:55;;;;;;;57.00;28.13;;;;;;;;;;4839469;29;20054;-82
2022/03/16 08:05:22;;;;;;;68.32;30.90;;;;;;;;;;4838713;29;20062;-82
2022/03/16 08:07:48;;;;;;;62.15;31.95;;;;;;;;;;4835875;29;20110;-82
2022/03/16 08:10:15;;;;;;;64.38;29.88;;;;;;;;;;4833369;29;20121;-82
2022/03/16 08:12:42;;;;;;;61.60;29.80;;;;;;;;;;4833441;29;20205;-83
2022/03/16 08:15:09;;;;;;;58.42;29.40;;;;;;;;;;4832960;29;20129;-81
2022/03/16 08:17:36;;;;;;;62.08;29.60;;;;;;;;;;4828008;29;20046;-83
2022/03/16 08:20:03;;;;;;;60.78;29.58;;;;;;;;;;4831497;29;20064;-82
2022/03/16 08:22:33;;;;;;;70.28;30.92;;;;;;;;;;4826405;29;20050;-82
2022/03/16 08:25:01;;;;;;;65.72;31.83;;;;;;;;;;4832627;29;20046;-82
2022/03/16 08:27:32;;;;;;;58.90;29.65;;;;;;;;;;4832418;29;20102;-82
2022/03/16 08:29:59;;;;;;;59.88;30.88;;;;;;;;;;4833105;29;20084;-81
2022/03/16 08:32:25;;;;;;;53.47;28.00;;;;;;;;;;4829498;29;20528;-82
2022/03/16 08:34:52;;;;;;;54.45;29.20;;;;;;;;;;4833442;29;20050;-82
2022/03/16 08:37:19;;;;;;;60.85;29.00;;;;;;;;;;4833721;29;20074;-82
2022/03/16 08:39:47;;;;;;;53.88;28.63;;;;;;;;;;4833667;29;20137;-82
2022/03/16 08:42:14;;;;;;;51.45;28.65;;;;;;;;;;4833240;29;20563;-82
2022/03/16 08:44:45;;;;;;;44.35;27.48;;;;;;;;;;4833835;29;20093;-83
2022/03/16 08:47:16;;;;;;;36.58;22.88;;;;;;;;;;4834161;29;20089;-83
2022/03/16 08:49:47;;;;;;;42.55;23.85;;;;;;;;;;4833752;29;20082;-82
2022/03/16 08:52:14;;;;;;;37.85;24.92;;;;;;;;;;4833244;29;20053;-84
2022/03/16 08:54:41;;;;;;;38.63;23.95;;;;;;;;;;4833706;29;20066;-83
2022/03/16 08:57:11;;;;;;;38.17;24.30;;;;;;;;;;4832937;29;20053;-83
2022/03/16 08:59:38;;;;;;;39.03;24.60;;;;;;;;;;4833839;29;20053;-83
2022/03/16 09:02:06;;;;;;;45.25;25.33;;;;;;;;;;4833259;29;20539;-83
2022/03/16 09:04:34;;;;;;;46.75;27.15;;;;;;;;;;4833968;29;20069;-82
2022/03/16 09:07:04;;;;;;;54.00;28.75;;;;;;;;;;4833184;29;20599;-83
2022/03/16 09:09:37;;;;;;;58.55;30.58;;;;;;;;;;4833046;29;20057;-82
2022/03/16 09:12:04;;;;;;;58.45;31.38;;;;;;;;;;4832375;29;20053;-82
2022/03/16 09:14:31;;;;;;;68.47;32.50;;;;;;;;;;4834336;29;20373;-83
2022/03/16 09:16:59;;;;;;;73.53;35.17;;;;;;;;;;4835746;29;20139;-83
2022/03/16 09:19:25;;;;;;;87.35;38.63;;;;;;;;;;4834981;29;20049;-83
2022/03/16 09:21:52;;;;;;;82.85;38.08;;;;;;;;;;4836847;29;20081;-84
2022/03/16 09:24:19;;;;;;;90.30;39.03;;;;;;;;;;4831241;29;20050;-82
2022/03/16 09:26:46;;;;;;;88.82;39.30;;;;;;;;;;4837214;29;20102;-83
2022/03/16 09:29:13;;;;;;;87.90;39.25;;;;;;;;;;4833066;29;20096;-83
2022/03/16 09:31:42;;;;;;;83.78;38.17;;;;;;;;;;4834220;29;20473;-83
2022/03/16 09:34:09;;;;;;;86.70;37.22;;;;;;;;;;4836306;29;20276;-83
2022/03/16 09:36:42;;;;;;;87.32;38.47;;;;;;;;;;4836500;29;20111;-83
2022/03/16 09:39:10;;;;;;;91.85;39.90;;;;;;;;;;4835881;29;20053;-83
2022/03/16 09:41:37;;;;;;;91.82;42.50;;;;;;;;;;4836156;29;20069;-83
2022/03/16 09:44:06;;;;;;;89.97;39.67;;;;;;;;;;4837210;29;20114;-82
2022/03/16 09:46:33;;;;;;;;;;;;;;;;;;4836472;29;20042;-83
2022/03/16 09:49:00;;;;;;;;;;;;;;;;;;4835080;29;20289;-81
2022/03/16 09:51:29;;;;;;;;;;;;;;;;;;4836625;29;20036;-82
2022/03/16 09:53:55;;;;;;;;;;;;;;;;;;4836727;29;19995;-83
2022/03/16 09:56:22;;;;;;;;;;;;;;;;;;4836031;29;19976;-82
2022/03/16 09:58:49;;;;;;;;;;;;;;;;;;4850006;29;19953;-82
2022/03/16 10:01:15;;;;;;;;;;;;;;;;;;4835821;29;20275;-82
2022/03/16 10:03:47;;;;;;;;;;;;;;;;;;4836125;29;19932;-83
2022/03/16 10:06:20;;;;;;;;;;;;;;;;;;4836292;29;20272;-82
2022/03/16 10:14:17;;;;;;;;;;;;;;;;;;4835274;29;19993;-85
2022/03/16 10:19:50;;;;;;;;;;;;;;;;;;4836216;29;20142;-83
2022/03/16 10:22:27;;;;;;;;;;;;;;;;;;4836168;29;19933;-83
2022/03/16 10:25:04;;;;;;;;;;;;;;;;;;4833286;29;19936;-83
2022/03/16 10:27:37;;;;;;;;;;;;;;;;;;4833108;29;19934;-83
2022/03/16 10:30:06;;;;;;;;;;;;;;;;;;4836342;29;19936;-83
2022/03/16 10:32:39;;;;;;;;;;;;;;;;;;4833183;29;19928;-83
2022/03/16 10:35:06;;;;;;;;;;;;;;;;;;4834755;29;19929;-84
2022/03/16 10:37:37;;;;;;;;;;;;;;;;;;4835748;29;20358;-83
2022/03/16 10:40:13;;;;;;;;;;;;;;;;;;4835155;29;19936;-83
2022/03/16 10:48:14;;;;;;;;;;;;;;;;;;4835824;29;20397;-84
2022/03/16 10:50:41;;;;;;;;;;;;;;;;;;4828728;29;19936;-84
2022/03/16 10:53:09;;;;;;;;;;;;;;;;;;4837076;29;20362;-82
2022/03/16 10:55:37;;;;;;;;;;;;;;;;;;4834725;29;19933;-83
2022/03/16 10:58:05;;;;;;;;;;;;;;;;;;4836904;29;19928;-83
2022/03/16 11:00:33;;;;;;;;;;;;;;;;;;4835419;29;20028;-83
2022/03/16 11:03:01;;;;;;;;;;;;;;;;;;4832816;29;20339;-83
2022/03/16 11:05:28;;;;;;;;;;;;;;;;;;4836348;29;20385;-83
2022/03/16 11:07:55;;;;;;;;;;;;;;;;;;4837112;29;20697;-83
2022/03/16 11:10:22;;;;;;;;;;;;;;;;;;4835693;29;20129;-82
2022/03/16 11:15:33;;;;;;;;;;;;;;;;;;4836274;29;19932;-83
2022/03/16 11:18:01;;;;;;;;;;;;;;;;;;4836334;29;19937;-82
2022/03/16 11:20:32;;;;;;;;;;;;;;;;;;4836120;29;19933;-81
2022/03/16 11:26:11;;;;;;;;;;;;;;;;;;4835870;29;19933;-81
2022/03/16 11:28:59;;;;;;;;;;;;;;;;;;4836213;29;20356;-81
2022/03/16 11:31:29;;;;;;;;;;;;;;;;;;4850728;29;19939;-81
2022/03/16 11:33:58;;;;;;;;;;;;;;;;;;4851867;29;19942;-80
2022/03/16 11:36:41;;;;;;;;;;;;;;;;;;4851784;29;20465;-81
2022/03/16 11:39:18;;;;;;;;;;;;;;;;;;4850749;29;19992;-81
2022/03/16 11:41:49;;;;;;;;;;;;;;;;;;4851474;29;19967;-80
2022/03/16 11:44:24;;;;;;;;;;;;;;;;;;4849345;29;19931;-80
2022/03/16 11:47:16;;;;;;;;;;;;;;;;;;4850090;29;19936;-81
2022/03/16 11:49:45;;;;;;;;;;;;;;;;;;4849860;29;19971;-80
2022/03/16 11:52:12;;;;;;;;;;;;;;;;;;4850003;29;20429;-81
2022/03/16 11:54:39;;;;;;;;;;;;;;;;;;4851289;29;19984;-81
2022/03/16 11:57:07;;;;;;;;;;;;;;;;;;4850476;29;20073;-81
2022/03/16 11:59:35;;;;;;;;;;;;;;;;;;4851845;29;20448;-81
2022/03/16 12:02:06;;;;;;;;;;;;;;;;;;4851135;29;19940;-83
2022/03/16 12:04:35;;;;;;;;;;;;;;;;;;4838875;29;19948;-85
2022/03/16 12:07:05;;;;;;;;;;;;;;;;;;4855155;29;19936;-85
2022/03/16 12:09:31;;;;;;;;;;;;;;;;;;4842154;29;20036;-83
2022/03/16 12:15:02;;;;;;;;;;;;;;;;;;4830771;29;19929;-83
2022/03/16 12:17:29;;;;;;;;;;;;;;;;;;4838060;29;19935;-84
2022/03/16 12:20:06;;;;;;;;;;;;;;;;;;4833338;29;19932;-84
2022/03/16 12:22:43;;;;;;;;;;;;;;;;;;4853483;29;19929;-83
2022/03/16 12:25:33;;;;;;;;;;;;;;;;;;4839458;29;19929;-83
2022/03/16 12:30:52;;;;;;;;;;;;;;;;;;4838891;29;19985;-84
2022/03/16 12:33:26;;;;;;;;;;;;;;;;;;4839053;29;19984;-83
2022/03/16 12:35:54;;;;;;;;;;;;;;;;;;4837211;29;19932;-84
2022/03/16 12:38:22;;;;;;;;;;;;;;;;;;4838543;29;20469;-82
2022/03/16 12:43:35;;;;;;;;;;;;;;;;;;4829988;29;20017;-83
2022/03/16 12:46:04;;;;;;;;;;;;;;;;;;4830872;29;19943;-83
2022/03/16 12:48:35;;;;;;;;;;;;;;;;;;4833674;29;19936;-83
2022/03/16 12:51:02;;;;;;;;;;;;;;;;;;4837317;29;19965;-83
2022/03/16 12:53:33;;;;;;;;;;;;;;;;;;4838703;29;19968;-83
2022/03/16 12:56:00;;;;;;;;;;;;;;;;;;4833625;29;19937;-81
2022/03/16 12:58:27;;;;;;;;;;;;;;;;;;4838836;29;20359;-82
2022/03/16 13:00:57;;;;;;;;;;;;;;;;;;4837181;29;19933;-83
2022/03/16 13:03:24;;;;;;;;;;;;;;;;;;4836544;29;19976;-82
2022/03/16 13:05:52;;;;;;;;;;;;;;;;;;4838444;29;19934;-83
2022/03/16 13:08:19;;;;;;;;;;;;;;;;;;4835962;29;19933;-81
2022/03/16 13:13:33;;;;;;;;;;;;;;;;;;4836285;29;20347;-81
2022/03/16 13:16:01;;;;;;;;;;;;;;;;;;4837802;29;19997;-81
2022/03/16 13:18:34;;;;;;;;;;;;;;;;;;4835596;29;19929;-82
2022/03/16 13:21:00;;;;;;;;;;;;;;;;;;4836786;29;20394;-80
2022/03/16 13:23:29;;;;;;;;;;;;;;;;;;4836994;29;19932;-81
2022/03/16 13:26:10;;;;;;;;;;;;;;;;;;4836716;29;20391;-82
2022/03/16 13:28:37;;;;;;;;;;;;;;;;;;4837239;29;19928;-81
2022/03/16 13:31:04;;;;;;;;;;;;;;;;;;4836707;29;20405;-82
2022/03/16 13:33:30;;;;;;;;;;;;;;;;;;4838046;29;20386;-80
2022/03/16 13:36:12;;;;;;;;;;;;;;;;;;4837545;29;20558;-81
2022/03/16 13:38:39;;;;;;;;;;;;;;;;;;4837697;29;19932;-80
2022/03/16 13:41:15;;;;;;;;;;;;;;;;;;4834148;29;20397;-81
2022/03/16 13:43:41;;;;;;;;;;;;;;;;;;4837397;29;19957;-81
2022/03/16 13:46:14;;;;;;;;;;;;;;;;;;4837767;29;20798;-79
2022/03/16 13:48:41;;;;;;;;;;;;;;;;;;4835483;29;19969;-82
2022/03/16 13:51:09;;;;;;;;;;;;;;;;;;4831021;29;19963;-81
2022/03/16 13:53:43;;;;;;;;;;;;;;;;;;4835266;29;19928;-81
2022/03/16 13:56:18;;;;;;;;;;;;;;;;;;4835431;29;20015;-80
2022/03/16 13:58:47;;;;;;;;;;;;;;;;;;4835726;29;19936;-81
2022/03/16 14:01:23;;;;;;;;;;;;;;;;;;4834917;29;19944;-80
2022/03/16 14:04:03;;;;;;;;;;;;;;;;;;4834430;29;19932;-80
2022/03/16 14:06:37;;;;;;;;;;;;;;;;;;4833303;29;19928;-81
2022/03/16 14:09:34;;;;;;;;;;;;;;;;;;4834330;29;19932;-78
2022/03/16 14:12:00;;;;;;;;;;;;;;;;;;4835745;29;19951;-80
2022/03/16 14:14:31;;;;;;;;;;;;;;;;;;4836712;29;19988;-80
2022/03/16 14:16:57;;;;;;;;;;;;;;;;;;4835773;29;19928;-80
2022/03/16 14:19:28;;;;;;;;;;;;;;;;;;4834785;29;20397;-80
2022/03/16 14:21:54;;;;;;;;;;;;;;;;;;4835894;29;19964;-81
2022/03/16 14:24:22;;;;;;;;;;;;;;;;;;4835538;29;19936;-79
2022/03/16 14:26:49;;;;;;;;;;;;;;;;;;4839303;29;20406;-82
2022/03/16 14:29:16;;;;;;;;;;;;;;;;;;4836595;29;20460;-82
2022/03/16 14:31:43;;;;;;;;;;;;;;;;;;4834569;29;19932;-82
2022/03/16 14:34:10;;;;;;;;;;;;;;;;;;4834366;29;19988;-80
2022/03/16 14:36:37;;;;;;;;;;;;;;;;;;4835749;29;19932;-82
2022/03/16 14:39:24;;;;;;;;;;;;;;;;;;4835526;29;19947;-83
2022/03/16 14:41:53;;;;;;;;;;;;;;;;;;4835028;29;19975;-82
2022/03/16 14:44:20;;;;;;;;;;;;;;;;;;4835589;29;19958;-83
2022/03/16 14:46:47;;;;;;;;;;;;;;;;;;4849556;29;19932;-82
2022/03/16 14:49:13;;;;;;;;;;;;;;;;;;4835161;29;20098;-81
2022/03/16 14:51:40;;;;;;;;;;;;;;;;;;4835345;29;19939;-82
2022/03/16 14:54:08;;;;;;;;;;;;;;;;;;4835654;29;19936;-82
2022/03/16 14:56:34;;;;;;;;;;;;;;;;;;4834932;29;19972;-82
2022/03/16 14:59:02;;;;;;;;;;;;;;;;;;4835103;29;19962;-81
2022/03/16 15:01:29;;;;;;;;;;;;;;;;;;4832845;29;19981;-82
2022/03/16 15:03:55;;;;;;;;;;;;;;;;;;4834518;29;19932;-82
2022/03/16 15:06:22;;;;;;;;;;;;;;;;;;4834200;29;19936;-82
2022/03/16 15:08:48;;;;;;;;;;;;;;;;;;4834989;29;19985;-83
2022/03/16 15:11:15;;;;;;;;;;;;;;;;;;4852784;29;19936;-82
2022/03/16 15:13:42;;;;;;;;;;;;;;;;;;4833839;29;19981;-82
2022/03/16 15:16:09;;;;;;;;;;;;;;;;;;4836612;29;19928;-82
2022/03/16 15:18:35;;;;;;;;;;;;;;;;;;4831238;29;20318;-83
2022/03/16 15:21:10;;;;;;;;;;;;;;;;;;4833854;29;19932;-84
2022/03/16 15:23:37;;;;;;;;;;;;;;;;;;4834962;29;19932;-83
2022/03/16 15:26:04;;;;;;;;;;;;;;;;;;4834055;29;19936;-83
2022/03/16 15:28:30;;;;;;;;;;;;;;;;;;4835181;29;19963;-83
2022/03/16 15:30:57;;;;;;;;;;;;;;;;;;4833735;29;20317;-83
2022/03/16 15:33:24;;;;;;;;;;;;;;;;;;4836331;29;20774;-82
2022/03/16 15:35:54;;;;;;;;;;;;;;;;;;4832987;29;20007;-82
2022/03/16 15:38:21;;;;;;;;;;;;;;;;;;4835124;29;19935;-82
2022/03/16 15:43:32;;;;;;;;;;;;;;;;;;4833930;29;20298;-83
2022/03/16 15:45:59;;;;;;;;;;;;;;;;;;4834149;29;20417;-82
2022/03/16 15:48:25;;;;;;;;;;;;;;;;;;4834625;29;19936;-81
2022/03/16 15:50:52;;;;;;;;;;;;;;;;;;4832505;29;20397;-82
2022/03/16 15:53:19;;;;;;;;;;;;;;;;;;4834091;29;19979;-81
2022/03/16 15:55:47;;;;;;;;;;;;;;;;;;4834336;29;19928;-81
2022/03/16 15:58:14;;;;;;;;;;;;;;;;;;4834104;29;20397;-81
2022/03/16 16:00:41;;;;;;;;;;;;;;;;;;4833412;29;20020;-80
2022/03/16 16:03:08;;;;;;;;;;;;;;;;;;4833579;29;19928;-81
2022/03/16 16:05:35;;;;;;;;;;;;;;;;;;4834661;29;19929;-82
2022/03/16 16:08:02;;;;;;;;;;;;;;;;;;4834421;29;19932;-82
2022/03/16 16:10:28;;;;;;;;;;;;;;;;;;4833864;29;19936;-81
2022/03/16 16:12:55;;;;;;;;;;;;;;;;;;4834487;29;20005;-81
2022/03/16 16:15:22;;;;;;;;;;;;;;;;;;4832067;29;19936;-80
2022/03/16 16:17:49;;;;;;;;;;;;;;;;;;4833066;29;19997;-81
2022/03/16 16:20:16;;;;;;;;;;;;;;;;;;4834814;29;20011;-79
2022/03/16 16:22:43;;;;;;;;;;;;;;;;;;4833907;29;19939;-80
2022/03/16 16:25:11;;;;;;;;;;;;;;;;;;4832305;29;20366;-80
2022/03/16 16:27:40;;;;;;;;;;;;;;;;;;4835538;29;19928;-83
2022/03/16 16:30:19;;;;;;;;;;;;;;;;;;4833584;29;19932;-83
2022/03/16 16:32:47;;;;;;;;;;;;;;;;;;4832041;29;20320;-80
2022/03/16 16:35:16;;;;;;;;;;;;;;;;;;4833938;29;19932;-82
2022/03/16 16:37:44;;;;;;;;;;;;;;;;;;4832769;29;19943;-82
2022/03/16 16:40:11;;;;;;;;;;;;;;;;;;4832782;29;19932;-83
2022/03/16 16:45:24;;;;;;;;;;;;;;;;;;4829917;29;19948;-83
2022/03/16 16:47:52;;;;;;;;;;;;;;;;;;4833110;29;19936;-83
2022/03/16 16:50:20;;;;;;;;;;;;;;;;;;4834122;29;20500;-82
2022/03/16 16:52:52;;;;;;;;;;;;;;;;;;4832812;29;19936;-82
2022/03/16 16:55:19;;;;;;;;;;;;;;;;;;4831682;29;20447;-83
2022/03/16 16:57:46;;;;;;;;;;;;;;;;;;4828688;29;19956;-83
2022/03/16 17:00:12;;;;;;;;;;;;;;;;;;4831195;29;19928;-82
2022/03/16 17:02:39;;;;;;;;;;;;;;;;;;4832380;29;19932;-83
2022/03/16 17:05:09;;;;;;;;;;;;;;;;;;4829205;29;20228;-81
2022/03/16 17:07:37;;;;;;;;;;;;;;;;;;4830104;29;19929;-79
2022/03/16 17:10:04;;;;;;;;;;;;;;;;;;4832466;29;19936;-81
2022/03/16 17:12:31;;;;;;;;;;;;;;;;;;4838997;29;20309;-80
2022/03/16 17:15:00;;;;;;;;;;;;;;;;;;4832010;29;19928;-81
2022/03/16 17:17:27;;;;;;;;;;;;;;;;;;4831886;29;20027;-83
2022/03/16 17:19:54;;;;;;;;;;;;;;;;;;4834005;29;20027;-81
2022/03/16 17:22:22;;;;;;;;;;;;;;;;;;4832449;29;19928;-81
2022/03/16 17:24:49;;;;;;;;;;;;;;;;;;4832893;29;19981;-84
2022/03/16 17:27:16;;;;;;;;;;;;;;;;;;4835455;29;20271;-84
2022/03/16 17:29:43;;;;;;;;;;;;;;;;;;4835040;29;20496;-83
2022/03/16 17:32:09;;;;;;;;;;;;;;;;;;4835150;29;19932;-83
2022/03/16 17:34:36;;;;;;;;;;;;;;;;;;4833676;29;19935;-83
2022/03/16 17:37:03;;;;;;;;;;;;;;;;;;4834764;29;19933;-83
2022/03/16 17:39:30;;;;;;;;;;;;;;;;;;4837797;29;19944;-79
2022/03/16 17:47:26;;;;;;;;;;;;;;;;;;4836173;29;19939;-82
2022/03/16 17:49:53;;;;;;;;;;;;;;;;;;4838669;29;19963;-83
2022/03/16 17:52:21;;;;;;;;;;;;;;;;;;4850662;29;19989;-84
2022/03/16 17:54:47;;;;;;;;;;;;;;;;;;4836549;29;19936;-85
2022/03/16 17:57:14;;;;;;;;;;;;;;;;;;4837023;29;19936;-84
2022/03/16 17:59:41;;;;;;;;;;;;;;;;;;4836708;29;19939;-84
2022/03/16 18:02:07;;;;;;;;;;;;;;;;;;4836290;29;20399;-84
2022/03/16 18:04:34;;;;;;;;;;;;;;;;;;4837413;29;19984;-84
2022/03/16 18:07:00;;;;;;;;;;;;;;;;;;4837212;29;19936;-84
2022/03/16 18:09:27;;;;;;;;;;;;;;;;;;4836244;29;19944;-84
2022/03/16 18:14:39;;;;;;;;;;;;;;;;;;4833793;29;19928;-82
2022/03/16 18:17:06;;;;;;;;;;;;;;;;;;4840760;29;19936;-83
2022/03/16 18:19:33;;;;;;;;;;;;;;;;;;4830873;29;20317;-82
2022/03/16 18:24:44;;;;;;;;;;;;;;;;;;4833089;29;19937;-83
2022/03/16 18:27:11;;;;;;;;;;;;;;;;;;4834636;29;19936;-84
2022/03/16 18:29:37;;;;;;;;;;;;;;;;;;4835798;29;19932;-82
2022/03/16 18:32:04;;;;;;;;;;;;;;;;;;4835171;29;19937;-82
2022/03/16 18:34:32;;;;;;;;;;;;;;;;;;4834545;29;19932;-83
2022/03/16 18:36:59;;;;;;;;;;;;;;;;;;4835198;29;19972;-83
2022/03/16 18:39:26;;;;;;;;;;;;;;;;;;4834632;29;19928;-83
2022/03/16 18:41:52;;;;;;;;;;;;;;;;;;4834513;29;20028;-84
2022/03/16 18:44:19;;;;;;;;;;;;;;;;;;4833584;29;19993;-84
2022/03/16 18:46:47;;;;;;;;;;;;;;;;;;4832339;29;19932;-82
2022/03/16 18:49:13;;;;;;;;;;;;;;;;;;4833111;29;20589;-82
2022/03/16 18:54:25;;;;;;;;;;;;;;;;;;4834199;29;19932;-81
2022/03/16 18:56:52;;;;;;;;;;;;;;;;;;4834449;29;19932;-82
2022/03/16 18:59:18;;;;;;;;;;;;;;;;;;4835637;29;19933;-82
2022/03/16 19:01:46;;;;;;;;;;;;;;;;;;4833761;29;20354;-86
2022/03/16 19:04:13;;;;;;;;;;;;;;;;;;4835122;29;19965;-85
2022/03/16 19:06:41;;;;;;;;;;;;;;;;;;4829711;29;19980;-83
2022/03/16 19:09:11;;;;;;;;;;;;;;;;;;4833748;29;19947;-85
2022/03/16 19:14:24;;;;;;;;;;;;;;;;;;4834895;29;19932;-84
2022/03/16 19:16:51;;;;;;;;;;;;;;;;;;4831064;29;20386;-83
2022/03/16 19:19:22;;;;;;;;;;;;;;;;;;4833475;29;19928;-85
2022/03/16 19:21:49;;;;;;;;;;;;;;;;;;4835086;29;19935;-85
2022/03/16 19:24:20;;;;;;;;;;;;;;;;;;4834684;29;19936;-85
2022/03/16 19:26:49;;;;;;;;;;;;;;;;;;4835522;29;20039;-82
2022/03/16 19:29:16;;;;;;;;;;;;;;;;;;4835518;29;20375;-84
2022/03/16 19:31:42;;;;;;;;;;;;;;;;;;4834133;29;19933;-84
2022/03/16 19:34:09;;;;;;;;;;;;;;;;;;4846581;29;19929;-83
2022/03/16 19:36:36;;;;;;;;;;;;;;;;;;4833083;29;19936;-83
2022/03/16 19:39:03;;;;;;;;;;;;;;;;;;4848785;29;20339;-83
2022/03/16 19:41:32;;;;;;;;;;;;;;;;;;4835307;29;20469;-84
2022/03/16 19:43:59;;;;;;;;;;;;;;;;;;4835490;29;20518;-83
2022/03/16 19:46:26;;;;;;;;;;;;;;;;;;4830441;29;19933;-83
2022/03/16 19:48:53;;;;;;;;;;;;;;;;;;4834524;29;19936;-83
2022/03/16 19:51:23;;;;;;;;;;;;;;;;;;4835405;29;19936;-83
2022/03/16 19:53:50;;;;;;;;;;;;;;;;;;4835591;29;19933;-84
2022/03/16 19:56:17;;;;;;;;;;;;;;;;;;4834881;29;19929;-84
2022/03/16 19:59:18;;;;;;;;;;;;;;;;;;4839139;29;20011;-89
2022/03/16 20:01:48;;;;;;;;;;;;;;;;;;4847923;29;19932;-89
2022/03/16 20:04:21;;;;;;;;;;;;;;;;;;4817590;29;20321;-88
2022/03/16 20:06:48;;;;;;;;;;;;;;;;;;4829999;29;20464;-89
2022/03/16 20:09:15;;;;;;;;;;;;;;;;;;4846666;29;20370;-88
2022/03/16 20:11:54;;;;;;;;;;;;;;;;;;4842194;29;19935;-89
2022/03/16 20:14:35;;;;;;;;;;;;;;;;;;4826148;29;19927;-86
2022/03/16 20:17:02;;;;;;;;;;;;;;;;;;4851976;29;20393;-84
2022/03/16 20:19:35;;;;;;;;;;;;;;;;;;4836578;29;19993;-87
2022/03/16 20:22:03;;;;;;;;;;;;;;;;;;4849169;29;19943;-84
2022/03/16 20:24:31;;;;;;;;;;;;;;;;;;4844987;29;20061;-85
2022/03/16 20:26:57;;;;;;;;;;;;;;;;;;4846547;29;19940;-84
2022/03/16 20:29:24;;;;;;;;;;;;;;;;;;4846323;29;20763;-86
2022/03/16 20:31:51;;;;;;;;;;;;;;;;;;4848220;29;19932;-85
2022/03/16 20:34:18;;;;;;;;;;;;;;;;;;4843353;29;19951;-85
2022/03/16 20:36:45;;;;;;;;;;;;;;;;;;4832096;29;19929;-85
2022/03/16 20:39:11;;;;;;;;;;;;;;;;;;4833688;29;19933;-84
2022/03/16 20:41:38;;;;;;;;;;;;;;;;;;4834536;29;19932;-84
2022/03/16 20:44:05;;;;;;;;;;;;;;;;;;4830681;29;19933;-86
2022/03/16 20:46:32;;;;;;;;;;;;;;;;;;4833199;29;19932;-84
2022/03/16 20:49:01;;;;;;;;;;;;;;;;;;4833732;29;19936;-85
2022/03/16 20:51:28;;;;;;;;;;;;;;;;;;4830981;29;19932;-87
2022/03/16 20:53:55;;;;;;;;;;;;;;;;;;4835750;29;19929;-87
2022/03/16 20:56:22;;;;;;;;;;;;;;;;;;4833255;29;20405;-84
2022/03/16 21:01:34;;;;;;;;;;;;;;;;;;4832246;29;20398;-84
2022/03/16 21:04:04;;;;;;;;;;;;;;;;;;4829752;29;19991;-83
2022/03/16 21:06:34;;;;;;;;;;;;;;;;;;4832347;29;19928;-85
2022/03/16 21:09:01;;;;;;;;;;;;;;;;;;4832508;29;20425;-85
2022/03/16 21:11:28;;;;;;;;;;;;;;;;;;4836430;29;20368;-85
2022/03/16 21:13:55;;;;;;;;;;;;;;;;;;4837986;29;20410;-84
2022/03/16 21:16:21;;;;;;;;;;;;;;;;;;4835701;29;19936;-83
2022/03/16 21:18:51;;;;;;;;;;;;;;;;;;4836467;29;19929;-83
2022/03/16 21:21:18;;;;;;;;;;;;;;;;;;4836952;29;19932;-87
2022/03/16 21:23:48;;;;;;;;;;;;;;;;;;4835036;29;20529;-82
2022/03/16 21:26:16;;;;;;;;;;;;;;;;;;4835805;29;20000;-82
2022/03/16 21:28:43;;;;;;;;;;;;;;;;;;4836273;29;19936;-82
2022/03/16 21:31:11;;;;;;;;;;;;;;;;;;4831179;29;19967;-83
2022/03/16 21:33:37;;;;;;;;;;;;;;;;;;4833919;29;19932;-84
2022/03/16 21:36:05;;;;;;;;;;;;;;;;;;4836134;29;19947;-84
2022/03/16 21:38:36;;;;;;;;;;;;;;;;;;4848221;29;20004;-83
2022/03/16 21:43:49;;;;;;;;;;;;;;;;;;4835701;29;19983;-83
2022/03/16 21:46:16;;;;;;;;;;;;;;;;;;4835479;29;19932;-84
2022/03/16 21:48:50;;;;;;;;;;;;;;;;;;4835150;29;19939;-85
2022/03/16 21:53:45;;;;;;;;;;;;;;;;;;4836597;29;19963;-85
2022/03/16 21:56:12;;;;;;;;;;;;;;;;;;4836523;29;19989;-85
2022/03/16 21:58:40;;;;;;;;;;;;;;;;;;4836874;29;19984;-85
2022/03/16 22:01:06;;;;;;;;;;;;;;;;;;4834670;29;19932;-84
2022/03/16 22:03:37;;;;;;;;;;;;;;;;;;4832717;29;19965;-84
2022/03/16 22:06:07;;;;;;;;;;;;;;;;;;4836199;29;19936;-85
2022/03/16 22:08:34;;;;;;;;;;;;;;;;;;4836322;29;19929;-84
2022/03/16 22:11:00;;;;;;;;;;;;;;;;;;4839039;29;19977;-85
2022/03/16 22:13:28;;;;;;;;;;;;;;;;;;4837525;29;19928;-87
2022/03/16 22:15:55;;;;;;;;;;;;;;;;;;4845029;29;20413;-90
2022/03/16 22:18:22;;;;;;;;;;;;;;;;;;4833164;29;19934;-89
2022/03/16 22:23:38;;;;;;;;;;;;;;;;;;4842792;29;19985;-89
2022/03/16 22:26:05;;;;;;;;;;;;;;;;;;4842683;29;19940;-88
2022/03/16 22:28:31;;;;;;;;;;;;;;;;;;4855347;29;20306;-88
2022/03/16 22:30:58;;;;;;;;;;;;;;;;;;4838180;29;20392;-85
2022/03/16 22:33:25;;;;;;;;;;;;;;;;;;4839011;29;20023;-86
2022/03/16 22:35:52;;;;;;;;;;;;;;;;;;4855386;29;19937;-84
2022/03/16 22:38:18;;;;;;;;;;;;;;;;;;4840331;29;19929;-87
2022/03/16 22:40:45;;;;;;;;;;;;;;;;;;4869164;29;19932;-88
2022/03/16 22:43:11;;;;;;;;;;;;;;;;;;4853237;29;20378;-89
2022/03/16 22:45:39;;;;;;;;;;;;;;;;;;4850074;29;20340;-86
2022/03/16 22:48:07;;;;;;;;;;;;;;;;;;4839791;29;20414;-88
2022/03/16 22:50:34;;;;;;;;;;;;;;;;;;4834588;29;19929;-88
2022/03/16 22:53:02;;;;;;;;;;;;;;;;;;4860037;29;19931;-87
2022/03/16 22:55:28;;;;;;;;;;;;;;;;;;4859852;29;19928;-88
2022/03/16 22:57:55;;;;;;;;;;;;;;;;;;4843315;29;19929;-88
2022/03/16 23:00:27;;;;;;;;;;;;;;;;;;4843110;29;19936;-87
2022/03/16 23:02:55;;;;;;;;;;;;;;;;;;4848919;29;19994;-87
2022/03/16 23:05:22;;;;;;;;;;;;;;;;;;4841753;29;20301;-85
2022/03/16 23:07:48;;;;;;;;;;;;;;;;;;4856470;29;19933;-86
2022/03/16 23:10:20;;;;;;;;;;;;;;;;;;4841078;29;19960;-87
2022/03/16 23:12:47;;;;;;;;;;;;;;;;;;4844668;29;19932;-88
2022/03/16 23:15:14;;;;;;;;;;;;;;;;;;4842886;29;20360;-85
2022/03/16 23:17:41;;;;;;;;;;;;;;;;;;4842224;29;19928;-86
2022/03/16 23:20:09;;;;;;;;;;;;;;;;;;4843198;29;19936;-87
2022/03/16 23:22:35;;;;;;;;;;;;;;;;;;4861499;29;19928;-86
2022/03/16 23:25:03;;;;;;;;;;;;;;;;;;4841155;29;20457;-88
2022/03/16 23:27:30;;;;;;;;;;;;;;;;;;4848229;29;19929;-87
2022/03/16 23:29:56;;;;;;;;;;;;;;;;;;4849728;29;19932;-87
2022/03/16 23:32:23;;;;;;;;;;;;;;;;;;4848398;29;19988;-88
2022/03/16 23:34:50;;;;;;;;;;;;;;;;;;4847154;29;19979;-84
2022/03/16 23:37:17;;;;;;;;;;;;;;;;;;4844077;29;19933;-87
2022/03/16 23:39:44;;;;;;;;;;;;;;;;;;4840563;29;19989;-86
2022/03/16 23:42:11;;;;;;;;;;;;;;;;;;4840522;29;19928;-87
2022/03/16 23:44:37;;;;;;;;;;;;;;;;;;4841498;29;19929;-87
2022/03/16 23:47:05;;;;;;;;;;;;;;;;;;4856919;29;19981;-86
2022/03/16 23:49:32;;;;;;;;;;;;;;;;;;4841811;29;19936;-87
2022/03/16 23:51:58;;;;;;;;;;;;;;;;;;4850147;29;19932;-88
2022/03/16 23:54:25;;;;;;;;;;;;;;;;;;4845747;29;19936;-87
2022/03/16 23:56:51;;;;;;;;;;;;;;;;;;4842140;29;19928;-88
2022/03/16 23:59:18;;;;;;;;;;;;;;;;;;4841458;29;19959;-88
